createdAt,value
2016-02-29T00:00:33.277Z,91.53
2016-02-29T00:01:33.248Z,91.05
2016-02-29T00:02:33.220Z,91.15
2016-02-29T00:03:33.176Z,91.24
2016-02-29T00:04:33.147Z,91.05
2016-02-29T00:05:33.118Z,91.24
2016-02-29T00:06:33.090Z,91.53
2016-02-29T00:07:33.061Z,91.43
2016-02-29T00:08:33.033Z,91.43
2016-02-29T00:09:32.989Z,91.24
2016-02-29T00:10:32.961Z,91.05
2016-02-29T00:11:32.932Z,91.01
2016-02-29T00:12:32.903Z,91.43
2016-02-29T00:13:32.859Z,91.58
2016-02-29T00:14:32.831Z,91.53
2016-02-29T00:15:32.802Z,91.29
2016-02-29T00:16:32.773Z,91.2
2016-02-29T00:17:32.745Z,91.2
2016-02-29T00:18:32.701Z,91.58
2016-02-29T00:19:32.672Z,91.48
2016-02-29T00:20:32.644Z,91.58
2016-02-29T00:21:32.615Z,91.58
2016-02-29T00:22:32.586Z,91.39
2016-02-29T00:23:32.558Z,91.67
2016-02-29T00:24:32.513Z,91.58
2016-02-29T00:25:32.485Z,91.58
2016-02-29T00:26:32.456Z,91.67
2016-02-29T00:27:32.428Z,91.67
2016-02-29T00:28:32.399Z,91.58
2016-02-29T00:29:32.355Z,91.77
2016-02-29T00:30:32.332Z,91.58
2016-02-29T00:31:32.303Z,91.67
2016-02-29T00:32:32.275Z,91.48
2016-02-29T00:33:32.230Z,91.86
2016-02-29T00:34:32.201Z,91.29
2016-02-29T00:35:32.173Z,91.58
2016-02-29T00:36:32.144Z,91.86
2016-02-29T00:37:32.116Z,91.48
2016-02-29T00:38:32.072Z,91.67
2016-02-29T00:39:32.043Z,91.58
2016-02-29T00:40:32.014Z,91.67
2016-02-29T00:41:32.002Z,91.58
2016-02-29T00:42:31.958Z,91.77
2016-02-29T00:43:31.913Z,91.58
2016-02-29T00:44:31.885Z,91.58
2016-02-29T00:45:31.856Z,91.58
2016-02-29T00:46:31.827Z,91.67
2016-02-29T00:47:31.783Z,91.58
2016-02-29T00:48:31.755Z,91.58
2016-02-29T00:49:31.726Z,91.48
2016-02-29T00:50:31.698Z,91.58
2016-02-29T00:51:31.669Z,91.58
2016-02-29T00:52:31.624Z,91.77
2016-02-29T00:53:31.596Z,91.48
2016-02-29T00:54:31.568Z,91.67
2016-02-29T00:55:31.539Z,91.86
2016-02-29T00:56:31.510Z,91.58
2016-02-29T00:57:31.467Z,92.43
2016-02-29T00:58:31.438Z,92.43
2016-02-29T00:59:31.409Z,92.24
2016-02-29T01:00:31.381Z,92.14
2016-02-29T01:01:31.352Z,92.33
2016-02-29T01:02:31.308Z,92.24
2016-02-29T01:03:31.279Z,92.33
2016-02-29T01:04:31.251Z,92.33
2016-02-29T01:05:31.222Z,92.05
2016-02-29T01:06:31.178Z,92.24
2016-02-29T01:07:31.165Z,92.14
2016-02-29T01:08:31.121Z,92.52
2016-02-29T01:09:31.092Z,92.33
2016-02-29T01:10:31.063Z,92.14
2016-02-29T01:11:31.019Z,92.14
2016-02-29T01:12:30.991Z,92.24
2016-02-29T01:13:30.963Z,92.24
2016-02-29T01:14:30.934Z,92.33
2016-02-29T01:15:30.890Z,92.52
2016-02-29T01:16:30.861Z,92.33
2016-02-29T01:17:30.833Z,92.05
2016-02-29T01:18:30.805Z,92.14
2016-02-29T01:19:30.776Z,92.24
2016-02-29T01:20:30.731Z,92.05
2016-02-29T01:21:30.703Z,92.71
2016-02-29T01:22:30.674Z,92.24
2016-02-29T01:23:30.646Z,91.86
2016-02-29T01:24:30.602Z,92.71
2016-02-29T01:25:30.573Z,92.52
2016-02-29T01:26:30.545Z,92.61
2016-02-29T01:27:30.516Z,92.61
2016-02-29T01:28:30.488Z,92.52
2016-02-29T01:29:30.442Z,92.52
2016-02-29T01:30:30.414Z,92.52
2016-02-29T01:31:30.386Z,92.71
2016-02-29T01:32:30.357Z,92.43
2016-02-29T01:33:30.313Z,92.43
2016-02-29T01:34:30.285Z,92.33
2016-02-29T01:35:30.256Z,92.52
2016-02-29T01:36:30.228Z,92.33
2016-02-29T01:37:30.200Z,92.33
2016-02-29T01:38:30.155Z,92.33
2016-02-29T01:39:30.157Z,92.33
2016-02-29T01:40:30.097Z,92.9
2016-02-29T01:41:30.069Z,91.96
2016-02-29T01:42:30.041Z,92.43
2016-02-29T01:43:29.996Z,92.33
2016-02-29T01:44:29.983Z,92.9
2016-02-29T01:45:29.939Z,92.24
2016-02-29T01:46:29.911Z,92.24
2016-02-29T01:47:29.866Z,92.24
2016-02-29T01:48:29.838Z,92.99
2016-02-29T01:49:29.810Z,92.9
2016-02-29T01:50:29.780Z,92.33
2016-02-29T01:51:29.737Z,92.24
2016-02-29T01:52:29.708Z,92.33
2016-02-29T01:53:29.680Z,92.24
2016-02-29T01:54:29.652Z,92.24
2016-02-29T01:55:29.607Z,92.24
2016-02-29T01:56:29.579Z,92.19
2016-02-29T01:57:29.550Z,92.19
2016-02-29T01:58:29.521Z,92.24
2016-02-29T01:59:29.493Z,92
2016-02-29T02:00:29.446Z,92
2016-02-29T02:01:29.403Z,92.85
2016-02-29T02:02:29.360Z,91.91
2016-02-29T02:03:29.315Z,91.91
2016-02-29T02:04:29.256Z,92.29
2016-02-29T02:05:29.214Z,92
2016-02-29T02:06:29.180Z,92
2016-02-29T02:07:29.147Z,92.38
2016-02-29T02:08:29.097Z,92.38
2016-02-29T02:09:29.063Z,92.38
2016-02-29T02:10:29.029Z,92.47
2016-02-29T02:11:28.999Z,92.57
2016-02-29T02:12:28.984Z,92.29
2016-02-29T02:13:28.922Z,92.57
2016-02-29T02:14:28.892Z,92.29
2016-02-29T02:15:28.861Z,92.57
2016-02-29T02:16:28.817Z,92.85
2016-02-29T02:17:28.787Z,92.66
2016-02-29T02:18:28.758Z,92.85
2016-02-29T02:19:28.728Z,92.76
2016-02-29T02:20:28.684Z,92.76
2016-02-29T02:21:28.655Z,92.94
2016-02-29T02:22:28.627Z,92.85
2016-02-29T02:23:28.598Z,92.85
2016-02-29T02:24:28.554Z,92.76
2016-02-29T02:25:28.526Z,92.76
2016-02-29T02:26:28.497Z,92.76
2016-02-29T02:27:28.469Z,92.47
2016-02-29T02:28:28.424Z,92.29
2016-02-29T02:29:28.395Z,92.19
2016-02-29T02:30:28.366Z,92.38
2016-02-29T02:31:28.339Z,92.66
2016-02-29T02:32:28.295Z,92.76
2016-02-29T02:33:28.266Z,92.76
2016-02-29T02:34:28.238Z,92.76
2016-02-29T02:35:28.208Z,92.85
2016-02-29T02:36:28.164Z,92.76
2016-02-29T02:37:28.136Z,92.66
2016-02-29T02:38:28.107Z,93.04
2016-02-29T02:39:28.079Z,92.66
2016-02-29T02:40:28.035Z,92.66
2016-02-29T02:41:28.021Z,92.85
2016-02-29T02:42:27.977Z,92.66
2016-02-29T02:43:27.949Z,93.13
2016-02-29T02:44:27.905Z,92.94
2016-02-29T02:45:27.876Z,93.23
2016-02-29T02:46:27.848Z,93.04
2016-02-29T02:47:27.819Z,93.04
2016-02-29T02:48:27.775Z,93.04
2016-02-29T02:49:27.745Z,93.23
2016-02-29T02:50:27.718Z,92.94
2016-02-29T02:51:27.689Z,93.23
2016-02-29T02:52:27.645Z,93.23
2016-02-29T02:53:27.617Z,93.23
2016-02-29T02:54:27.587Z,93.23
2016-02-29T02:55:27.559Z,93.32
2016-02-29T02:56:27.515Z,93.13
2016-02-29T02:57:27.486Z,92.85
2016-02-29T02:58:27.459Z,92.29
2016-02-29T02:59:27.414Z,92.29
2016-02-29T03:00:27.386Z,92.19
2016-02-29T03:01:27.356Z,92.19
2016-02-29T03:02:27.328Z,92.57
2016-02-29T03:03:27.284Z,92.38
2016-02-29T03:04:27.256Z,92.57
2016-02-29T03:05:27.227Z,92.38
2016-02-29T03:06:27.199Z,92.76
2016-02-29T03:07:27.155Z,92.38
2016-02-29T03:08:27.125Z,92.47
2016-02-29T03:09:27.097Z,92.38
2016-02-29T03:10:27.069Z,92.1
2016-02-29T03:11:27.024Z,92.29
2016-02-29T03:12:26.996Z,92.66
2016-02-29T03:13:26.968Z,92.76
2016-02-29T03:14:26.923Z,93.04
2016-02-29T03:15:26.894Z,93.32
2016-02-29T03:16:26.866Z,93.04
2016-02-29T03:17:26.838Z,93.13
2016-02-29T03:18:26.793Z,93.13
2016-02-29T03:19:26.765Z,92.94
2016-02-29T03:20:26.736Z,92.94
2016-02-29T03:21:26.707Z,93.32
2016-02-29T03:22:26.662Z,93.04
2016-02-29T03:23:26.635Z,92.94
2016-02-29T03:24:26.606Z,92.76
2016-02-29T03:25:26.562Z,93.04
2016-02-29T03:26:26.533Z,92.85
2016-02-29T03:27:26.505Z,92.66
2016-02-29T03:28:26.476Z,93.51
2016-02-29T03:29:26.432Z,93.32
2016-02-29T03:30:26.404Z,93.23
2016-02-29T03:31:26.375Z,92.94
2016-02-29T03:32:26.347Z,93.13
2016-02-29T03:33:26.302Z,92.94
2016-02-29T03:34:26.275Z,93.23
2016-02-29T03:35:26.245Z,93.42
2016-02-29T03:36:26.217Z,93.13
2016-02-29T03:37:26.172Z,93.23
2016-02-29T03:38:26.144Z,93.89
2016-02-29T03:39:26.115Z,93.8
2016-02-29T03:40:26.071Z,93.51
2016-02-29T03:41:26.042Z,93.61
2016-02-29T03:42:26.013Z,93.61
2016-02-29T03:43:25.986Z,93.32
2016-02-29T03:44:25.941Z,93.61
2016-02-29T03:45:25.912Z,93.89
2016-02-29T03:46:25.884Z,93.42
2016-02-29T03:47:25.855Z,93.42
2016-02-29T03:48:25.812Z,93.42
2016-02-29T03:49:25.783Z,93.8
2016-02-29T03:50:25.754Z,93.51
2016-02-29T03:51:25.710Z,93.7
2016-02-29T03:52:25.681Z,93.42
2016-02-29T03:53:25.654Z,93.61
2016-02-29T03:54:25.624Z,93.32
2016-02-29T03:55:25.581Z,93.42
2016-02-29T03:56:25.551Z,93.32
2016-02-29T03:57:25.523Z,93.99
2016-02-29T03:58:25.479Z,93.42
2016-02-29T03:59:25.451Z,93.42
2016-02-29T04:00:25.422Z,93.32
2016-02-29T04:01:25.393Z,93.32
2016-02-29T04:02:25.350Z,93.8
2016-02-29T04:03:25.321Z,93.61
2016-02-29T04:04:25.292Z,93.61
2016-02-29T04:05:25.311Z,93.61
2016-02-29T04:06:25.220Z,93.61
2016-02-29T04:07:25.191Z,93.61
2016-02-29T04:08:25.161Z,93.61
2016-02-29T04:09:25.118Z,93.42
2016-02-29T04:10:25.089Z,93.51
2016-02-29T04:11:25.060Z,93.8
2016-02-29T04:12:25.032Z,93.61
2016-02-29T04:13:24.988Z,93.61
2016-02-29T04:14:24.960Z,93.32
2016-02-29T04:15:24.930Z,93.32
2016-02-29T04:16:24.887Z,93.32
2016-02-29T04:17:24.857Z,93.7
2016-02-29T04:18:24.830Z,93.61
2016-02-29T04:19:24.801Z,93.51
2016-02-29T04:20:24.773Z,93.7
2016-02-29T04:21:24.729Z,93.23
2016-02-29T04:22:24.699Z,93.7
2016-02-29T04:23:24.671Z,93.7
2016-02-29T04:24:24.626Z,93.32
2016-02-29T04:25:24.598Z,93.42
2016-02-29T04:26:24.570Z,93.8
2016-02-29T04:27:24.526Z,93.42
2016-02-29T04:28:24.499Z,93.51
2016-02-29T04:29:24.469Z,93.51
2016-02-29T04:30:24.425Z,93.51
2016-02-29T04:31:24.397Z,93.51
2016-02-29T04:32:24.368Z,93.32
2016-02-29T04:33:24.340Z,93.8
2016-02-29T04:34:24.295Z,93.32
2016-02-29T04:35:24.268Z,93.7
2016-02-29T04:36:24.238Z,93.51
2016-02-29T04:37:24.210Z,93.51
2016-02-29T04:38:24.165Z,93.61
2016-02-29T04:39:24.137Z,93.89
2016-02-29T04:40:24.109Z,93.32
2016-02-29T04:41:24.064Z,93.51
2016-02-29T04:42:24.036Z,93.42
2016-02-29T04:43:24.007Z,93.47
2016-02-29T04:44:23.962Z,93.42
2016-02-29T04:45:23.934Z,93.51
2016-02-29T04:46:23.906Z,93.42
2016-02-29T04:47:23.877Z,93.23
2016-02-29T04:48:23.834Z,93.89
2016-02-29T04:49:23.805Z,93.99
2016-02-29T04:50:23.776Z,93.89
2016-02-29T04:51:23.731Z,93.28
2016-02-29T04:52:23.703Z,93.99
2016-02-29T04:53:23.675Z,93.99
2016-02-29T04:54:23.646Z,93.7
2016-02-29T04:55:23.602Z,94.18
2016-02-29T04:56:23.574Z,94.37
2016-02-29T04:57:23.545Z,94.08
2016-02-29T04:58:23.516Z,94.18
2016-02-29T04:59:23.472Z,94.37
2016-02-29T05:00:23.459Z,94.27
2016-02-29T05:01:23.416Z,94.37
2016-02-29T05:02:23.371Z,94.27
2016-02-29T05:03:23.343Z,93.99
2016-02-29T05:04:23.313Z,94.18
2016-02-29T05:05:23.285Z,94.18
2016-02-29T05:06:23.244Z,94.08
2016-02-29T05:07:23.215Z,94.08
2016-02-29T05:08:23.187Z,93.89
2016-02-29T05:09:23.143Z,94.08
2016-02-29T05:10:23.114Z,94.27
2016-02-29T05:11:23.085Z,94.18
2016-02-29T05:12:23.040Z,94.08
2016-02-29T05:13:23.012Z,94.13
2016-02-29T05:14:22.985Z,94.27
2016-02-29T05:15:22.956Z,94.27
2016-02-29T05:16:22.912Z,94.08
2016-02-29T05:17:22.883Z,93.99
2016-02-29T05:18:22.854Z,94.27
2016-02-29T05:19:22.809Z,94.27
2016-02-29T05:20:22.781Z,94.27
2016-02-29T05:21:22.753Z,94.22
2016-02-29T05:22:22.724Z,94.27
2016-02-29T05:23:22.695Z,94.27
2016-02-29T05:24:22.652Z,94.18
2016-02-29T05:25:22.622Z,94.08
2016-02-29T05:26:22.578Z,94.18
2016-02-29T05:27:22.550Z,94.27
2016-02-29T05:28:22.522Z,94.18
2016-02-29T05:29:22.493Z,94.03
2016-02-29T05:30:22.449Z,93.84
2016-02-29T05:31:22.420Z,94.03
2016-02-29T05:32:22.391Z,94.03
2016-02-29T05:33:22.364Z,94.13
2016-02-29T05:34:22.319Z,94.03
2016-02-29T05:35:22.291Z,93.84
2016-02-29T05:36:22.262Z,94.13
2016-02-29T05:37:22.218Z,93.94
2016-02-29T05:38:22.190Z,94.03
2016-02-29T05:39:22.161Z,94.13
2016-02-29T05:40:22.132Z,94.22
2016-02-29T05:41:22.088Z,94.13
2016-02-29T05:42:22.059Z,94.41
2016-02-29T05:43:22.032Z,94.13
2016-02-29T05:44:21.986Z,94.22
2016-02-29T05:45:21.959Z,94.41
2016-02-29T05:46:21.930Z,94.41
2016-02-29T05:47:21.885Z,94.03
2016-02-29T05:48:21.857Z,94.6
2016-02-29T05:49:21.829Z,94.13
2016-02-29T05:50:21.784Z,94.89
2016-02-29T05:51:21.756Z,94.41
2016-02-29T05:52:21.728Z,94.79
2016-02-29T05:53:21.698Z,94.89
2016-02-29T05:54:21.654Z,94.6
2016-02-29T05:55:21.625Z,94.98
2016-02-29T05:56:21.597Z,94.6
2016-02-29T05:57:21.567Z,94.98
2016-02-29T05:58:21.530Z,94.89
2016-02-29T05:59:21.490Z,94.7
2016-02-29T06:00:21.462Z,94.98
2016-02-29T06:01:21.491Z,94.7
2016-02-29T06:02:21.400Z,94.6
2016-02-29T06:03:21.356Z,94.79
2016-02-29T06:04:21.358Z,94.51
2016-02-29T06:05:21.300Z,94.79
2016-02-29T06:06:21.270Z,94.79
2016-02-29T06:07:21.227Z,94.79
2016-02-29T06:08:21.197Z,94.51
2016-02-29T06:09:21.169Z,94.89
2016-02-29T06:10:21.125Z,94.89
2016-02-29T06:11:21.097Z,94.98
2016-02-29T06:12:21.130Z,94.6
2016-02-29T06:13:21.039Z,94.41
2016-02-29T06:14:20.995Z,94.79
2016-02-29T06:15:20.967Z,94.89
2016-02-29T06:16:20.938Z,94.89
2016-02-29T06:17:20.894Z,94.79
2016-02-29T06:18:20.858Z,94.79
2016-02-29T06:19:20.829Z,94.98
2016-02-29T06:20:20.801Z,94.6
2016-02-29T06:21:20.756Z,94.79
2016-02-29T06:22:20.727Z,94.6
2016-02-29T06:23:20.699Z,95.07
2016-02-29T06:24:20.671Z,95.45
2016-02-29T06:25:20.626Z,95.31
2016-02-29T06:26:20.598Z,95.17
2016-02-29T06:27:20.569Z,95.07
2016-02-29T06:28:20.525Z,95.31
2016-02-29T06:29:20.496Z,95.5
2016-02-29T06:30:20.468Z,96.16
2016-02-29T06:31:20.439Z,95.21
2016-02-29T06:32:20.395Z,95.21
2016-02-29T06:33:20.366Z,95.4
2016-02-29T06:34:20.338Z,95.4
2016-02-29T06:35:20.309Z,95.4
2016-02-29T06:36:20.265Z,95.03
2016-02-29T06:37:20.237Z,95.12
2016-02-29T06:38:20.208Z,95.21
2016-02-29T06:39:20.164Z,95.31
2016-02-29T06:40:20.135Z,95.31
2016-02-29T06:41:20.107Z,95.4
2016-02-29T06:42:20.078Z,95.31
2016-02-29T06:43:20.034Z,95.4
2016-02-29T06:44:20.005Z,95.03
2016-02-29T06:45:19.977Z,94.56
2016-02-29T06:46:19.948Z,94.74
2016-02-29T06:47:19.905Z,94.56
2016-02-29T06:48:19.876Z,94.84
2016-02-29T06:49:19.847Z,94.65
2016-02-29T06:50:19.802Z,95.03
2016-02-29T06:51:19.774Z,94.74
2016-02-29T06:52:19.746Z,94.74
2016-02-29T06:53:19.717Z,94.65
2016-02-29T06:54:19.673Z,94.84
2016-02-29T06:55:19.645Z,94.84
2016-02-29T06:56:19.616Z,94.65
2016-02-29T06:57:19.587Z,94.65
2016-02-29T06:58:19.543Z,95.21
2016-02-29T06:59:19.514Z,95.12
2016-02-29T07:00:19.487Z,94.74
2016-02-29T07:01:19.442Z,94.65
2016-02-29T07:02:19.414Z,94.84
2016-02-29T07:03:19.384Z,94.74
2016-02-29T07:04:19.356Z,94.84
2016-02-29T07:05:19.312Z,95.21
2016-02-29T07:06:19.283Z,94.84
2016-02-29T07:07:19.255Z,94.84
2016-02-29T07:08:19.226Z,94.65
2016-02-29T07:09:19.182Z,94.65
2016-02-29T07:10:19.153Z,94.65
2016-02-29T07:11:19.125Z,94.84
2016-02-29T07:12:19.111Z,94.65
2016-02-29T07:13:19.049Z,94.56
2016-02-29T07:14:19.021Z,94.74
2016-02-29T07:15:18.992Z,94.65
2016-02-29T07:16:18.964Z,94.84
2016-02-29T07:17:18.919Z,94.84
2016-02-29T07:18:18.891Z,94.56
2016-02-29T07:19:18.863Z,94.84
2016-02-29T07:20:18.819Z,95.12
2016-02-29T07:21:18.805Z,94.74
2016-02-29T07:22:18.761Z,94.84
2016-02-29T07:23:18.732Z,94.84
2016-02-29T07:24:18.704Z,94.74
2016-02-29T07:25:18.676Z,94.84
2016-02-29T07:26:18.631Z,94.46
2016-02-29T07:27:18.604Z,94.37
2016-02-29T07:28:18.574Z,94.37
2016-02-29T07:29:18.546Z,94.37
2016-02-29T07:30:18.501Z,94.46
2016-02-29T07:31:18.473Z,94.37
2016-02-29T07:32:18.445Z,94.37
2016-02-29T07:33:18.415Z,94.37
2016-02-29T07:34:18.372Z,94.56
2016-02-29T07:35:18.343Z,94.37
2016-02-29T07:36:18.314Z,93.99
2016-02-29T07:37:18.286Z,94.46
2016-02-29T07:38:18.258Z,94.37
2016-02-29T07:39:18.213Z,94.18
2016-02-29T07:40:18.185Z,93.89
2016-02-29T07:41:18.156Z,93.99
2016-02-29T07:42:18.128Z,93.99
2016-02-29T07:43:18.083Z,94.18
2016-02-29T07:44:18.055Z,94.46
2016-02-29T07:45:18.027Z,93.99
2016-02-29T07:46:17.998Z,94.08
2016-02-29T07:47:17.969Z,93.89
2016-02-29T07:48:17.956Z,93.99
2016-02-29T07:49:17.897Z,94.37
2016-02-29T07:50:17.868Z,94.37
2016-02-29T07:51:17.839Z,94.37
2016-02-29T07:52:17.795Z,94.18
2016-02-29T07:53:17.766Z,94.37
2016-02-29T07:54:17.738Z,94.18
2016-02-29T07:55:17.710Z,94.42
2016-02-29T07:56:17.681Z,94.37
2016-02-29T07:57:17.637Z,94.42
2016-02-29T07:58:17.608Z,94.32
2016-02-29T07:59:17.580Z,94.42
2016-02-29T08:00:17.551Z,94.32
2016-02-29T08:01:17.523Z,94.23
2016-02-29T08:02:17.493Z,93.94
2016-02-29T08:03:17.450Z,93.94
2016-02-29T08:04:17.420Z,94.51
2016-02-29T08:05:17.392Z,93.85
2016-02-29T08:06:17.365Z,93.37
2016-02-29T08:07:17.320Z,93.85
2016-02-29T08:08:17.291Z,93.28
2016-02-29T08:09:17.262Z,93.47
2016-02-29T08:10:17.250Z,93.47
2016-02-29T08:11:17.206Z,93.66
2016-02-29T08:12:17.178Z,93.66
2016-02-29T08:13:17.133Z,93.56
2016-02-29T08:14:17.105Z,93.66
2016-02-29T08:15:17.075Z,93.75
2016-02-29T08:16:17.047Z,93.85
2016-02-29T08:17:17.018Z,93.09
2016-02-29T08:18:16.990Z,92.99
2016-02-29T08:19:16.946Z,93.28
2016-02-29T08:20:16.917Z,92.33
2016-02-29T08:21:16.888Z,92.14
2016-02-29T08:22:16.860Z,92.24
2016-02-29T08:23:16.831Z,92.43
2016-02-29T08:24:16.803Z,92.24
2016-02-29T08:25:16.775Z,92.24
2016-02-29T08:26:16.730Z,92.52
2016-02-29T08:27:16.702Z,92.43
2016-02-29T08:28:16.674Z,92.19
2016-02-29T08:29:16.645Z,92.76
2016-02-29T08:30:16.615Z,92.66
2016-02-29T08:31:16.587Z,92.29
2016-02-29T08:32:16.560Z,92.94
2016-02-29T08:33:16.515Z,92.29
2016-02-29T08:34:16.705Z,92.29
2016-02-29T08:35:16.457Z,92.19
2016-02-29T08:36:16.429Z,92.29
2016-02-29T08:37:16.400Z,92.57
2016-02-29T08:38:16.372Z,92.38
2016-02-29T08:39:16.328Z,92.38
2016-02-29T08:40:16.300Z,92.19
2016-02-29T08:41:16.271Z,92.29
2016-02-29T08:42:16.273Z,92.47
2016-02-29T08:43:16.229Z,91.72
2016-02-29T08:44:16.185Z,90.48
2016-02-29T08:45:16.157Z,90.58
2016-02-29T08:46:16.128Z,91.05
2016-02-29T08:47:16.100Z,90.96
2016-02-29T08:48:16.071Z,91.24
2016-02-29T08:49:16.027Z,91.43
2016-02-29T08:50:15.997Z,91.62
2016-02-29T08:51:15.969Z,91.15
2016-02-29T08:52:15.940Z,91.15
2016-02-29T08:53:15.913Z,89.92
2016-02-29T08:54:15.884Z,90.39
2016-02-29T08:55:15.855Z,90.2
2016-02-29T08:56:15.827Z,90.01
2016-02-29T08:57:15.798Z,89.96
2016-02-29T08:58:15.754Z,89.68
2016-02-29T08:59:15.725Z,89.96
2016-02-29T09:00:15.712Z,89.68
2016-02-29T09:01:15.685Z,89.58
2016-02-29T09:02:15.655Z,89.39
2016-02-29T09:03:15.612Z,89.58
2016-02-29T09:04:15.582Z,89.68
2016-02-29T09:05:15.570Z,89.58
2016-02-29T09:06:15.587Z,89.11
2016-02-29T09:07:15.528Z,89.3
2016-02-29T09:08:15.452Z,89.39
2016-02-29T09:09:15.423Z,89.3
2016-02-29T09:10:15.394Z,89.87
2016-02-29T09:11:15.366Z,89.39
2016-02-29T09:12:15.337Z,89.58
2016-02-29T09:13:15.308Z,89.39
2016-02-29T09:14:15.280Z,89.11
2016-02-29T09:15:15.252Z,89.39
2016-02-29T09:16:15.364Z,89.39
2016-02-29T09:17:15.194Z,89.3
2016-02-29T09:18:15.181Z,88.92
2016-02-29T09:19:15.138Z,88.35
2016-02-29T09:20:15.110Z,88.45
2016-02-29T09:21:15.174Z,87.78
2016-02-29T09:22:15.052Z,87.21
2016-02-29T09:23:15.007Z,87.88
2016-02-29T09:24:15.198Z,88.07
2016-02-29T09:25:15.012Z,87.78
2016-02-29T09:26:14.922Z,87.59
2016-02-29T09:27:14.894Z,87.21
2016-02-29T09:28:14.865Z,87.31
2016-02-29T09:29:14.915Z,87.21
2016-02-29T09:30:14.948Z,87.31
2016-02-29T09:31:14.778Z,87.78
2016-02-29T09:32:14.969Z,88.21
2016-02-29T09:33:14.723Z,88.17
2016-02-29T09:34:14.694Z,87.92
2016-02-29T09:35:14.665Z,88.02
2016-02-29T09:36:14.636Z,88.4
2016-02-29T09:37:14.608Z,88.21
2016-02-29T09:38:14.580Z,87.73
2016-02-29T09:39:14.551Z,88.11
2016-02-29T09:40:14.522Z,87.35
2016-02-29T09:41:14.478Z,86.6
2016-02-29T09:42:14.480Z,86.03
2016-02-29T09:43:14.421Z,85.84
2016-02-29T09:44:14.391Z,86.41
2016-02-29T09:45:14.363Z,85.93
2016-02-29T09:46:14.335Z,86.6
2016-02-29T09:47:14.307Z,86.6
2016-02-29T10:16:36.480Z,81.52
2016-02-29T10:17:36.451Z,82.47
2016-02-29T10:18:36.440Z,81.99
2016-02-29T10:19:36.395Z,82.18
2016-02-29T10:20:36.366Z,82.85
2016-02-29T10:21:36.337Z,81.81
2016-02-29T10:22:36.309Z,81.33
2016-02-29T10:23:36.280Z,82.28
2016-02-29T10:24:36.283Z,81.62
2016-02-29T10:25:36.223Z,83.13
2016-02-29T10:26:36.195Z,83.04
2016-02-29T10:27:36.166Z,82.75
2016-02-29T10:28:36.137Z,82.85
2016-02-29T10:29:36.109Z,82.94
2016-02-29T10:30:36.081Z,81.9
2016-02-29T10:31:36.052Z,81.71
2016-02-29T10:32:36.023Z,82.37
2016-02-29T10:33:35.994Z,81.99
2016-02-29T10:34:35.966Z,81.62
2016-02-29T10:35:35.938Z,81.43
2016-02-29T10:36:35.909Z,80.52
2016-02-29T10:37:35.880Z,79.91
2016-02-29T10:38:35.852Z,80.33
2016-02-29T10:39:35.839Z,79.38
2016-02-29T10:40:35.810Z,79.28
2016-02-29T10:41:35.782Z,79.57
2016-02-29T10:42:35.738Z,80.14
2016-02-29T10:43:35.724Z,80.24
2016-02-29T10:44:35.696Z,79.95
2016-02-29T10:45:35.668Z,80.33
2016-02-29T10:46:35.640Z,80.62
2016-02-29T10:47:35.610Z,80.71
2016-02-29T10:48:35.582Z,81.27
2016-02-29T10:49:35.554Z,80.24
2016-02-29T10:50:35.525Z,80.71
2016-02-29T10:51:35.496Z,80.14
2016-02-29T10:52:35.468Z,79.85
2016-02-29T10:53:35.439Z,79.1
2016-02-29T10:54:35.411Z,78.72
2016-02-29T10:55:35.382Z,79.1
2016-02-29T10:56:35.353Z,79.85
2016-02-29T10:57:35.340Z,80.14
2016-02-29T10:58:35.297Z,80.71
2016-02-29T10:59:35.283Z,80.99
2016-02-29T11:00:35.239Z,81.66
2016-02-29T11:01:35.305Z,80.71
2016-02-29T11:02:35.198Z,79.76
2016-02-29T11:03:35.169Z,79.66
2016-02-29T11:04:35.141Z,79.66
2016-02-29T11:05:35.102Z,79.95
2016-02-29T11:06:35.085Z,80.24
2016-02-29T11:07:35.046Z,80.9
2016-02-29T11:08:35.007Z,80.24
2016-02-29T11:09:34.967Z,80.14
2016-02-29T11:10:34.927Z,80.24
2016-02-29T11:11:34.889Z,79.28
2016-02-29T11:12:34.857Z,79.47
2016-02-29T11:13:34.824Z,80.04
2016-02-29T11:14:34.791Z,79.85
2016-02-29T11:15:34.775Z,79.99
2016-02-29T11:16:34.728Z,79.9
2016-02-29T11:17:34.713Z,79.71
2016-02-29T11:18:34.667Z,79.14
2016-02-29T11:19:34.653Z,78.47
2016-02-29T11:20:34.623Z,79.33
2016-02-29T11:21:34.594Z,78.66
2016-02-29T11:22:34.565Z,76.95
2016-02-29T11:23:34.535Z,76.01
2016-02-29T11:24:34.522Z,76.1
2016-02-29T11:25:34.478Z,77.33
2016-02-29T11:26:34.449Z,78.19
2016-02-29T11:27:34.419Z,74.01
2016-02-29T11:28:34.390Z,73.54
2016-02-29T11:29:34.378Z,74.01
2016-02-29T11:30:34.348Z,74.3
2016-02-29T11:31:34.320Z,74.01
2016-02-29T11:32:34.291Z,74.01
2016-02-29T11:33:34.263Z,74.2
2016-02-29T11:34:34.234Z,75.15
2016-02-29T11:35:34.205Z,75.72
2016-02-29T11:36:34.177Z,75.34
2016-02-29T11:37:34.149Z,75.91
2016-02-29T11:38:34.135Z,74.49
2016-02-29T11:39:34.107Z,75.62
2016-02-29T11:40:34.078Z,76.2
2016-02-29T11:41:34.049Z,75.53
2016-02-29T11:42:34.021Z,74.87
2016-02-29T11:43:33.993Z,74.96
2016-02-29T11:44:33.963Z,73.92
2016-02-29T11:45:33.951Z,72.59
2016-02-29T11:46:33.922Z,73.16
2016-02-29T11:47:33.910Z,74.77
2016-02-29T11:48:33.865Z,73.92
2016-02-29T11:49:33.837Z,73.82
2016-02-29T11:50:33.809Z,73.63
2016-02-29T11:51:33.795Z,73.82
2016-02-29T11:52:33.767Z,73.63
2016-02-29T11:53:33.738Z,73.72
2016-02-29T11:54:33.710Z,74.24
2016-02-29T11:55:33.681Z,73.38
2016-02-29T11:56:33.668Z,73.67
2016-02-29T11:57:33.623Z,74.05
2016-02-29T11:58:33.595Z,73.29
2016-02-29T11:59:33.583Z,72.25
2016-02-29T12:00:33.554Z,72.91
2016-02-29T12:01:33.525Z,73.38
2016-02-29T12:02:33.497Z,71.77
2016-02-29T12:03:33.468Z,72.53
2016-02-29T12:04:33.455Z,73.76
2016-02-29T12:05:33.427Z,72.72
2016-02-29T12:06:33.398Z,72.06
2016-02-29T12:07:33.370Z,72.34
2016-02-29T12:08:33.341Z,72.15
2016-02-29T12:09:33.328Z,74.05
2016-02-29T12:10:33.299Z,74.52
2016-02-29T12:11:33.271Z,75.28
2016-02-29T12:12:33.243Z,74.71
2016-02-29T12:13:33.214Z,74.71
2016-02-29T12:14:33.185Z,75.57
2016-02-29T12:15:33.157Z,74.56
2016-02-29T12:16:33.144Z,70.76
2016-02-29T12:17:33.116Z,70.67
2016-02-29T12:18:33.087Z,69.4
2016-02-29T12:19:33.058Z,69.11
2016-02-29T12:20:33.046Z,67.97
2016-02-29T12:21:33.017Z,68.73
2016-02-29T12:22:32.988Z,69.11
2016-02-29T12:23:32.960Z,68.16
2016-02-29T12:24:32.946Z,67.59
2016-02-29T12:25:32.918Z,67.88
2016-02-29T12:26:32.905Z,69.59
2016-02-29T12:27:32.861Z,68.92
2016-02-29T12:28:32.832Z,67.79
2016-02-29T12:29:32.803Z,68.73
2016-02-29T12:30:32.791Z,70.54
2016-02-29T12:31:32.762Z,71.01
2016-02-29T12:32:32.733Z,71.2
2016-02-29T12:33:32.706Z,71.11
2016-02-29T12:34:32.677Z,71.96
2016-02-29T12:35:32.648Z,72.53
2016-02-29T12:36:32.636Z,72.91
2016-02-29T12:37:32.606Z,73.19
2016-02-29T12:38:32.578Z,73.38
2016-02-29T12:39:32.549Z,73.1
2016-02-29T12:40:32.537Z,70.63
2016-02-29T12:41:32.508Z,69.62
2016-02-29T12:42:32.480Z,69.96
2016-02-29T12:43:32.451Z,70.76
2016-02-29T12:44:32.438Z,71.33
2016-02-29T12:45:32.409Z,70.67
2016-02-29T12:46:32.381Z,70.25
2016-02-29T12:47:32.352Z,70.06
2016-02-29T12:48:32.324Z,70.15
2016-02-29T12:49:32.310Z,70.38
2016-02-29T12:50:32.282Z,70.44
2016-02-29T12:51:32.254Z,70.35
2016-02-29T12:52:32.226Z,70.44
2016-02-29T12:53:32.196Z,71.2
2016-02-29T12:54:32.168Z,71.48
2016-02-29T12:55:32.155Z,71.77
2016-02-29T12:56:32.126Z,71.3
2016-02-29T12:57:32.098Z,71.11
2016-02-29T12:58:32.069Z,69.49
2016-02-29T12:59:32.056Z,68.16
2016-02-29T13:00:32.028Z,68.83
2016-02-29T13:01:32.000Z,69.68
2016-02-29T13:02:31.970Z,69.68
2016-02-29T13:03:31.942Z,68.73
2016-02-29T13:04:31.929Z,68.44
2016-02-29T13:05:31.891Z,69.49
2016-02-29T13:06:31.878Z,70.73
2016-02-29T13:07:31.850Z,70.67
2016-02-29T13:08:31.867Z,70.63
2016-02-29T13:09:31.792Z,69.4
2016-02-29T13:10:31.764Z,69.96
2016-02-29T13:11:31.751Z,70.35
2016-02-29T13:12:31.723Z,70.73
2016-02-29T13:13:31.694Z,70.29
2016-02-29T13:14:31.665Z,70.57
2016-02-29T13:15:31.652Z,70.86
2016-02-29T13:16:31.733Z,69.15
2016-02-29T13:17:31.689Z,70.29
2016-02-29T13:18:31.583Z,70.86
2016-02-29T13:19:31.538Z,71.23
2016-02-29T13:20:31.510Z,70.67
2016-02-29T13:21:31.512Z,70.67
2016-02-29T13:22:31.468Z,71.23